Time;durP1;ratioP1;P1;durP2;ratioP2;P2;SDS_P1;SDS_P2;PMS_P1;PMS_P2;Temp;Humidity;BMP_temperature;BMP_pressure;BME280_temperature;BME280_humidity;BME280_pressure;Samples;Min_cycle;Max_cycle;Signal;HPM_P1;HPM_P2
2022/03/08 00:01:00;;;;;;;24.95;22.33;;;;;;;;;;5023883;28;20041;-73
2022/03/08 00:03:26;;;;;;;24.60;16.75;;;;;;;;;;5045505;28;20094;-75
2022/03/08 00:05:52;;;;;;;26.02;21.27;;;;;;;;;;5026038;28;20581;-74
2022/03/08 00:08:18;;;;;;;24.80;20.00;;;;;;;;;;5036215;28;20037;-74
2022/03/08 00:10:44;;;;;;;12.95;11.65;;;;;;;;;;5028664;28;20037;-74
2022/03/08 00:13:10;;;;;;;17.63;15.40;;;;;;;;;;5030883;28;20167;-74
2022/03/08 00:15:36;;;;;;;19.02;17.00;;;;;;;;;;5031566;28;20037;-75
2022/03/08 00:18:01;;;;;;;20.10;18.10;;;;;;;;;;5031572;28;20033;-75
2022/03/08 00:20:27;;;;;;;21.00;18.73;;;;;;;;;;5031174;28;20072;-74
2022/03/08 00:22:53;;;;;;;16.63;14.95;;;;;;;;;;5031646;28;20129;-75
2022/03/08 00:25:19;;;;;;;17.15;15.35;;;;;;;;;;5032337;28;20045;-75
2022/03/08 00:27:48;;;;;;;21.55;19.10;;;;;;;;;;5032242;28;20136;-73
2022/03/08 00:30:17;;;;;;;18.38;16.38;;;;;;;;;;5031948;28;20120;-73
2022/03/08 00:32:43;;;;;;;15.27;13.55;;;;;;;;;;5032227;28;20718;-74
2022/03/08 00:35:09;;;;;;;14.60;13.18;;;;;;;;;;5014489;28;20056;-74
2022/03/08 00:37:35;;;;;;;16.73;13.13;;;;;;;;;;5014512;28;20045;-75
2022/03/08 00:40:01;;;;;;;18.17;16.48;;;;;;;;;;5032073;28;20077;-75
2022/03/08 00:42:28;;;;;;;16.80;14.13;;;;;;;;;;5030713;28;20041;-76
2022/03/08 00:44:54;;;;;;;18.35;15.13;;;;;;;;;;5032084;28;20111;-74
2022/03/08 00:47:20;;;;;;;16.63;14.75;;;;;;;;;;5031885;28;20072;-75
2022/03/08 00:49:46;;;;;;;19.63;17.52;;;;;;;;;;5042768;28;20180;-75
2022/03/08 00:52:12;;;;;;;12.52;11.23;;;;;;;;;;5033921;28;20531;-75
2022/03/08 00:54:38;;;;;;;13.00;11.70;;;;;;;;;;5051833;28;20072;-74
2022/03/08 00:57:04;;;;;;;16.38;14.68;;;;;;;;;;5039992;28;20037;-74
2022/03/08 00:59:30;;;;;;;19.25;17.33;;;;;;;;;;5013874;28;20041;-75
2022/03/08 01:01:56;;;;;;;13.38;12.07;;;;;;;;;;5031536;28;20041;-74
2022/03/08 01:04:22;;;;;;;16.77;14.27;;;;;;;;;;5013963;28;20087;-74
2022/03/08 01:06:48;;;;;;;20.58;18.63;;;;;;;;;;4997352;28;20046;-74
2022/03/08 01:09:13;;;;;;;22.25;19.95;;;;;;;;;;5030354;28;20064;-74
2022/03/08 01:11:39;;;;;;;17.98;15.63;;;;;;;;;;5013975;28;20561;-74
2022/03/08 01:14:07;;;;;;;15.27;13.73;;;;;;;;;;5031756;28;20041;-73
2022/03/08 01:16:35;;;;;;;16.05;14.23;;;;;;;;;;5031901;28;20398;-74
2022/03/08 01:19:02;;;;;;;18.65;15.85;;;;;;;;;;5013951;28;20052;-74
2022/03/08 01:21:27;;;;;;;18.63;15.10;;;;;;;;;;5031896;28;20045;-74
2022/03/08 01:23:53;;;;;;;19.50;15.30;;;;;;;;;;5031876;28;20037;-74
2022/03/08 01:26:19;;;;;;;14.32;12.65;;;;;;;;;;5013442;28;20203;-73
2022/03/08 01:28:45;;;;;;;10.32;9.13;;;;;;;;;;5031116;28;20044;-72
2022/03/08 01:31:11;;;;;;;7.13;6.45;;;;;;;;;;5029635;28;20061;-74
2022/03/08 01:33:37;;;;;;;11.13;9.07;;;;;;;;;;5023844;28;20041;-74
2022/03/08 01:36:03;;;;;;;10.35;9.23;;;;;;;;;;5011255;28;20517;-73
2022/03/08 01:38:28;;;;;;;14.75;10.82;;;;;;;;;;5010096;28;20097;-75
2022/03/08 01:40:55;;;;;;;9.57;8.57;;;;;;;;;;4978258;28;20450;-74
2022/03/08 01:43:21;;;;;;;10.70;9.20;;;;;;;;;;5011643;28;20042;-74
2022/03/08 01:45:47;;;;;;;8.85;8.05;;;;;;;;;;4993920;28;20517;-73
2022/03/08 01:48:13;;;;;;;11.63;9.52;;;;;;;;;;5010031;28;20041;-74
2022/03/08 01:50:39;;;;;;;11.57;10.48;;;;;;;;;;4994466;28;20037;-74
2022/03/08 01:53:05;;;;;;;12.88;11.82;;;;;;;;;;5011099;28;20056;-75
2022/03/08 01:55:32;;;;;;;10.70;9.70;;;;;;;;;;4994173;28;20066;-73
2022/03/08 01:57:58;;;;;;;12.73;11.52;;;;;;;;;;5011025;28;20050;-74
2022/03/08 02:00:24;;;;;;;16.50;14.95;;;;;;;;;;4993512;28;20528;-73
2022/03/08 02:02:51;;;;;;;18.20;16.60;;;;;;;;;;5010556;28;20049;-73
2022/03/08 02:05:16;;;;;;;15.43;13.82;;;;;;;;;;5010661;28;20041;-73
2022/03/08 02:07:42;;;;;;;16.25;14.73;;;;;;;;;;5010715;28;20055;-73
2022/03/08 02:10:08;;;;;;;16.33;13.50;;;;;;;;;;5010505;28;20064;-74
2022/03/08 02:12:34;;;;;;;20.40;18.65;;;;;;;;;;5010797;28;20082;-74
2022/03/08 02:15:12;;;;;;;17.85;15.98;;;;;;;;;;5013829;28;20422;-73
2022/03/08 02:17:38;;;;;;;18.85;17.15;;;;;;;;;;5030211;28;20045;-74
2022/03/08 02:20:04;;;;;;;16.30;14.65;;;;;;;;;;5029974;28;20051;-73
2022/03/08 02:22:30;;;;;;;16.48;14.85;;;;;;;;;;5012649;28;20127;-74
2022/03/08 02:24:55;;;;;;;11.35;10.35;;;;;;;;;;5030267;28;20041;-74
2022/03/08 02:27:21;;;;;;;14.23;13.02;;;;;;;;;;5014623;28;20061;-74
2022/03/08 02:29:47;;;;;;;9.45;8.63;;;;;;;;;;5009057;28;20539;-74
2022/03/08 02:32:15;;;;;;;10.07;9.07;;;;;;;;;;5026158;28;20087;-74
2022/03/08 02:34:42;;;;;;;9.80;9.00;;;;;;;;;;5032175;28;20045;-74
2022/03/08 02:37:09;;;;;;;9.43;8.63;;;;;;;;;;5049482;28;20091;-74
2022/03/08 02:39:35;;;;;;;7.95;7.25;;;;;;;;;;5032091;28;20037;-73
2022/03/08 02:42:01;;;;;;;6.55;5.95;;;;;;;;;;5048741;28;20085;-74
2022/03/08 02:44:27;;;;;;;7.45;6.88;;;;;;;;;;5049633;28;20513;-74
2022/03/08 02:46:53;;;;;;;8.45;7.75;;;;;;;;;;5049927;28;20064;-74
2022/03/08 02:49:19;;;;;;;6.68;6.07;;;;;;;;;;5050551;28;20040;-74
2022/03/08 02:51:46;;;;;;;8.88;8.10;;;;;;;;;;5049974;28;20041;-73
2022/03/08 02:54:12;;;;;;;9.48;8.40;;;;;;;;;;5049566;28;20041;-75
2022/03/08 02:56:38;;;;;;;9.38;8.30;;;;;;;;;;5049953;28;20041;-75
2022/03/08 02:59:04;;;;;;;10.68;9.73;;;;;;;;;;5048141;28;20467;-73
2022/03/08 03:01:29;;;;;;;13.48;12.23;;;;;;;;;;5031881;28;20037;-75
2022/03/08 03:03:55;;;;;;;14.13;9.85;;;;;;;;;;5048215;28;20040;-75
2022/03/08 03:06:21;;;;;;;11.70;10.45;;;;;;;;;;5031947;28;20106;-75
2022/03/08 03:08:47;;;;;;;13.68;12.30;;;;;;;;;;5051667;28;20067;-74
2022/03/08 03:11:12;;;;;;;15.90;14.23;;;;;;;;;;5043856;28;20169;-75
2022/03/08 03:13:38;;;;;;;15.55;14.15;;;;;;;;;;5012794;28;20432;-75
2022/03/08 03:16:04;;;;;;;17.17;15.48;;;;;;;;;;5029340;28;20041;-75
2022/03/08 03:18:30;;;;;;;16.67;14.50;;;;;;;;;;5030149;28;20050;-75
2022/03/08 03:20:56;;;;;;;17.08;14.35;;;;;;;;;;4997828;28;20172;-74
2022/03/08 03:23:22;;;;;;;12.57;10.93;;;;;;;;;;4996881;28;20053;-74
2022/03/08 03:25:48;;;;;;;10.05;9.05;;;;;;;;;;5030035;28;20168;-75
2022/03/08 03:28:13;;;;;;;14.80;11.85;;;;;;;;;;5028852;28;20128;-76
2022/03/08 03:30:39;;;;;;;13.90;11.80;;;;;;;;;;5041488;28;20053;-76
2022/03/08 03:33:05;;;;;;;15.63;13.93;;;;;;;;;;5035724;28;20426;-77
2022/03/08 03:35:31;;;;;;;12.75;10.60;;;;;;;;;;5054546;28;20045;-77
2022/03/08 03:37:57;;;;;;;10.63;9.70;;;;;;;;;;5054650;28;20076;-75
2022/03/08 03:40:23;;;;;;;13.25;11.95;;;;;;;;;;5034788;28;20540;-73
2022/03/08 03:42:49;;;;;;;13.10;11.80;;;;;;;;;;5054445;28;20048;-74
2022/03/08 03:45:15;;;;;;;11.77;10.65;;;;;;;;;;5035764;28;20673;-75
2022/03/08 03:47:41;;;;;;;12.80;9.05;;;;;;;;;;5053675;28;20057;-74
2022/03/08 03:50:07;;;;;;;10.98;9.88;;;;;;;;;;5047166;28;20582;-73
2022/03/08 03:52:33;;;;;;;14.70;10.18;;;;;;;;;;5044110;28;20084;-72
2022/03/08 03:54:59;;;;;;;14.98;11.30;;;;;;;;;;5033874;28;20651;-72
2022/03/08 03:57:25;;;;;;;10.38;8.35;;;;;;;;;;5033319;28;20381;-74
2022/03/08 03:59:51;;;;;;;9.85;8.70;;;;;;;;;;5019322;28;20037;-76
2022/03/08 04:02:17;;;;;;;11.60;9.30;;;;;;;;;;5055802;28;20226;-74
2022/03/08 04:04:42;;;;;;;10.45;8.63;;;;;;;;;;5056958;28;20041;-75
2022/03/08 04:07:08;;;;;;;6.90;5.65;;;;;;;;;;5055738;28;20055;-75
2022/03/08 04:09:34;;;;;;;10.15;9.27;;;;;;;;;;5057421;28;20053;-75
2022/03/08 04:11:59;;;;;;;7.10;6.45;;;;;;;;;;5039890;28;20041;-76
2022/03/08 04:14:25;;;;;;;10.52;9.55;;;;;;;;;;5056868;28;20041;-75
2022/03/08 04:16:52;;;;;;;10.80;9.70;;;;;;;;;;5018430;28;20068;-74
2022/03/08 04:19:17;;;;;;;6.95;5.63;;;;;;;;;;5035762;28;20045;-76
2022/03/08 04:21:43;;;;;;;12.75;11.57;;;;;;;;;;5034088;28;20044;-75
2022/03/08 04:24:09;;;;;;;10.18;9.38;;;;;;;;;;5015704;28;20484;-75
2022/03/08 04:26:36;;;;;;;12.05;9.68;;;;;;;;;;5032883;28;20137;-75
2022/03/08 04:29:02;;;;;;;12.05;8.52;;;;;;;;;;5020216;28;20478;-75
2022/03/08 04:31:27;;;;;;;9.48;8.57;;;;;;;;;;5027526;28;20057;-75
2022/03/08 04:33:53;;;;;;;10.80;8.20;;;;;;;;;;5036372;28;20049;-75
2022/03/08 04:36:19;;;;;;;14.93;13.70;;;;;;;;;;5034535;28;20458;-75
2022/03/08 04:38:45;;;;;;;15.60;14.20;;;;;;;;;;5034226;28;20425;-75
2022/03/08 04:41:12;;;;;;;12.52;11.35;;;;;;;;;;5021425;28;20034;-74
2022/03/08 04:43:37;;;;;;;11.82;10.25;;;;;;;;;;5014949;28;20102;-76
2022/03/08 04:46:03;;;;;;;8.55;7.63;;;;;;;;;;5017662;28;20481;-76
2022/03/08 04:48:29;;;;;;;17.08;15.43;;;;;;;;;;5023166;28;20041;-76
2022/03/08 04:50:55;;;;;;;16.73;15.13;;;;;;;;;;5015083;28;20057;-76
2022/03/08 04:53:21;;;;;;;13.13;11.90;;;;;;;;;;4996364;28;20050;-75
2022/03/08 04:55:47;;;;;;;13.80;12.40;;;;;;;;;;5011874;28;20084;-76
2022/03/08 04:58:12;;;;;;;13.43;12.13;;;;;;;;;;5012160;28;20049;-74
2022/03/08 05:00:38;;;;;;;11.07;9.88;;;;;;;;;;5012589;28;20506;-75
2022/03/08 05:03:04;;;;;;;15.40;13.95;;;;;;;;;;5012849;28;20088;-76
2022/03/08 05:05:33;;;;;;;8.27;7.45;;;;;;;;;;4994596;28;20129;-76
2022/03/08 05:07:59;;;;;;;13.63;12.32;;;;;;;;;;5012603;28;20481;-75
2022/03/08 05:10:25;;;;;;;11.45;9.55;;;;;;;;;;5028597;28;20041;-75
2022/03/08 05:12:52;;;;;;;13.18;12.15;;;;;;;;;;5035548;28;20064;-75
2022/03/08 05:15:17;;;;;;;10.38;9.50;;;;;;;;;;5035080;28;20037;-75
2022/03/08 05:17:43;;;;;;;8.82;8.07;;;;;;;;;;5033433;28;20040;-77
2022/03/08 05:20:10;;;;;;;14.85;9.57;;;;;;;;;;5032450;28;20049;-75
2022/03/08 05:22:35;;;;;;;8.27;7.57;;;;;;;;;;5034455;28;20092;-74
2022/03/08 05:25:03;;;;;;;7.93;7.32;;;;;;;;;;5034297;28;20585;-75
2022/03/08 05:27:28;;;;;;;10.82;7.55;;;;;;;;;;5018198;28;20410;-75
2022/03/08 05:29:55;;;;;;;9.65;8.95;;;;;;;;;;5017600;28;20654;-75
2022/03/08 05:32:20;;;;;;;9.77;8.98;;;;;;;;;;5033852;28;20064;-75
2022/03/08 05:34:47;;;;;;;9.32;8.63;;;;;;;;;;5017783;28;20088;-74
2022/03/08 05:37:13;;;;;;;8.98;8.18;;;;;;;;;;5013619;28;20097;-74
2022/03/08 05:39:39;;;;;;;7.78;7.18;;;;;;;;;;5014359;28;20050;-75
2022/03/08 05:42:04;;;;;;;6.65;5.93;;;;;;;;;;5017984;28;20407;-76
2022/03/08 05:44:30;;;;;;;9.77;8.98;;;;;;;;;;5017988;28;20072;-75
2022/03/08 05:46:56;;;;;;;7.40;6.70;;;;;;;;;;5026819;28;20516;-75
2022/03/08 05:49:25;;;;;;;8.70;7.93;;;;;;;;;;5018257;28;20038;-76
2022/03/08 05:51:51;;;;;;;6.63;6.03;;;;;;;;;;5033356;28;20041;-74
2022/03/08 05:54:17;;;;;;;6.65;6.15;;;;;;;;;;5014686;28;20367;-74
2022/03/08 05:56:44;;;;;;;6.50;5.82;;;;;;;;;;4996953;28;20092;-79
2022/03/08 05:59:10;;;;;;;7.53;6.93;;;;;;;;;;5016727;28;20042;-79
2022/03/08 06:01:36;;;;;;;6.28;5.78;;;;;;;;;;5018141;28;20089;-78
2022/03/08 06:04:02;;;;;;;7.57;6.97;;;;;;;;;;5018226;28;20029;-79
2022/03/08 06:06:28;;;;;;;7.15;6.55;;;;;;;;;;5017097;28;20580;-78
2022/03/08 06:08:54;;;;;;;6.78;6.28;;;;;;;;;;4990758;28;20044;-75
2022/03/08 06:11:20;;;;;;;6.75;6.25;;;;;;;;;;5011348;28;20128;-74
2022/03/08 06:13:46;;;;;;;8.27;7.57;;;;;;;;;;5010920;28;20092;-75
2022/03/08 06:16:13;;;;;;;6.70;6.13;;;;;;;;;;5011063;28;20068;-75
2022/03/08 06:18:40;;;;;;;8.48;7.88;;;;;;;;;;4985358;28;20044;-74
2022/03/08 06:21:08;;;;;;;6.75;6.03;;;;;;;;;;4986562;28;20048;-74
2022/03/08 06:23:34;;;;;;;5.13;4.72;;;;;;;;;;5007621;28;20425;-73
2022/03/08 06:26:00;;;;;;;6.82;6.18;;;;;;;;;;5010401;28;20879;-73
2022/03/08 06:28:26;;;;;;;6.85;6.35;;;;;;;;;;4998255;28;20037;-73
2022/03/08 06:30:52;;;;;;;8.05;7.25;;;;;;;;;;5004192;28;20605;-73
2022/03/08 06:33:18;;;;;;;6.72;6.22;;;;;;;;;;5029198;28;20524;-74
2022/03/08 06:35:44;;;;;;;7.85;7.25;;;;;;;;;;5014550;28;20164;-74
2022/03/08 06:38:10;;;;;;;7.20;6.53;;;;;;;;;;5032896;28;20505;-73
2022/03/08 06:40:36;;;;;;;5.57;5.07;;;;;;;;;;5012633;28;20093;-75
2022/03/08 06:43:02;;;;;;;5.80;5.40;;;;;;;;;;5029046;28;20038;-75
2022/03/08 06:45:30;;;;;;;6.38;5.88;;;;;;;;;;5011487;28;20048;-77
2022/03/08 06:47:56;;;;;;;7.15;6.57;;;;;;;;;;5028773;28;20048;-77
2022/03/08 06:50:22;;;;;;;5.95;5.55;;;;;;;;;;5027240;28;20034;-76
2022/03/08 06:52:48;;;;;;;7.72;7.13;;;;;;;;;;5026910;28;20045;-80
2022/03/08 06:55:14;;;;;;;6.38;5.78;;;;;;;;;;5026457;28;20394;-76
2022/03/08 06:57:40;;;;;;;6.55;6.00;;;;;;;;;;5029774;28;20107;-77
2022/03/08 07:00:07;;;;;;;7.07;6.53;;;;;;;;;;5028437;28;20481;-76
2022/03/08 07:02:33;;;;;;;7.72;7.00;;;;;;;;;;5029254;28;20040;-76
2022/03/08 07:05:00;;;;;;;6.57;5.97;;;;;;;;;;5026640;28;20041;-76
2022/03/08 07:07:26;;;;;;;4.50;4.13;;;;;;;;;;5008661;28;20137;-76
2022/03/08 07:09:52;;;;;;;5.80;5.07;;;;;;;;;;5016258;28;20030;-77
2022/03/08 07:12:18;;;;;;;6.65;5.70;;;;;;;;;;5035322;28;20045;-76
2022/03/08 07:14:44;;;;;;;6.00;5.60;;;;;;;;;;5038674;28;20048;-75
2022/03/08 07:17:10;;;;;;;5.80;5.40;;;;;;;;;;5011660;28;20045;-76
2022/03/08 07:19:36;;;;;;;4.70;4.40;;;;;;;;;;5027939;28;20129;-76
2022/03/08 07:22:02;;;;;;;5.03;4.63;;;;;;;;;;5028187;28;20576;-76
2022/03/08 07:24:28;;;;;;;7.13;6.55;;;;;;;;;;5025749;28;20541;-76
2022/03/08 07:26:54;;;;;;;5.68;5.13;;;;;;;;;;5027806;28;20186;-77
2022/03/08 07:29:20;;;;;;;6.50;5.95;;;;;;;;;;5012442;28;20477;-76
2022/03/08 07:31:46;;;;;;;7.22;6.53;;;;;;;;;;5027089;28;20084;-76
2022/03/08 07:34:14;;;;;;;7.45;6.03;;;;;;;;;;4976847;28;20485;-78
2022/03/08 07:36:39;;;;;;;6.38;5.88;;;;;;;;;;5008776;28;20041;-76
2022/03/08 07:39:06;;;;;;;7.03;6.53;;;;;;;;;;5027280;28;20499;-77
2022/03/08 07:41:32;;;;;;;7.13;6.50;;;;;;;;;;5027018;28;20107;-77
2022/03/08 07:43:58;;;;;;;5.40;4.90;;;;;;;;;;5026451;28;20037;-79
2022/03/08 07:46:24;;;;;;;6.55;6.07;;;;;;;;;;5026573;28;20646;-78
2022/03/08 07:48:51;;;;;;;7.75;7.15;;;;;;;;;;5029409;28;20041;-78
2022/03/08 07:51:21;;;;;;;7.78;7.10;;;;;;;;;;4993778;28;20517;-82
2022/03/08 07:53:49;;;;;;;7.95;7.25;;;;;;;;;;5013824;28;20045;-76
2022/03/08 07:56:25;;;;;;;6.95;6.35;;;;;;;;;;5029388;28;20037;-78
2022/03/08 07:58:56;;;;;;;7.45;6.78;;;;;;;;;;5025626;28;20056;-77
2022/03/08 08:01:22;;;;;;;8.15;7.45;;;;;;;;;;5027247;28;20042;-76
2022/03/08 08:03:48;;;;;;;7.55;6.93;;;;;;;;;;5026896;28;20152;-76
2022/03/08 08:06:14;;;;;;;7.70;7.03;;;;;;;;;;5026929;28;20468;-77
2022/03/08 08:08:40;;;;;;;7.75;7.05;;;;;;;;;;5026694;28;20469;-77
2022/03/08 08:11:06;;;;;;;6.65;6.15;;;;;;;;;;5027007;28;20433;-77
2022/03/08 08:13:32;;;;;;;6.93;6.35;;;;;;;;;;4992635;28;20584;-77
2022/03/08 08:15:58;;;;;;;6.78;6.22;;;;;;;;;;5026474;28;20037;-77
2022/03/08 08:18:24;;;;;;;7.32;6.63;;;;;;;;;;5026519;28;20041;-78
2022/03/08 08:20:53;;;;;;;7.07;6.45;;;;;;;;;;5030191;28;20037;-80
2022/03/08 08:23:23;;;;;;;7.60;7.00;;;;;;;;;;5026458;28;20295;-79
2022/03/08 08:25:49;;;;;;;6.10;5.55;;;;;;;;;;5028893;28;20093;-80
2022/03/08 08:28:15;;;;;;;6.25;5.72;;;;;;;;;;5012887;28;20046;-79
2022/03/08 08:30:41;;;;;;;7.07;6.57;;;;;;;;;;5030862;28;20049;-79
2022/03/08 08:33:08;;;;;;;5.60;4.55;;;;;;;;;;5028109;28;20037;-80
2022/03/08 08:35:34;;;;;;;5.63;5.13;;;;;;;;;;5032997;28;20052;-78
2022/03/08 08:38:00;;;;;;;7.05;6.32;;;;;;;;;;5013280;28;20037;-79
2022/03/08 08:40:25;;;;;;;6.80;6.28;;;;;;;;;;5021466;28;20053;-78
2022/03/08 08:42:52;;;;;;;7.13;6.43;;;;;;;;;;5035057;28;20057;-77
2022/03/08 08:45:18;;;;;;;5.32;4.93;;;;;;;;;;5028948;28;20127;-77
2022/03/08 08:47:44;;;;;;;8.05;5.05;;;;;;;;;;5030883;28;20444;-75
2022/03/08 08:50:10;;;;;;;6.50;6.00;;;;;;;;;;5031331;28;20041;-76
2022/03/08 08:52:36;;;;;;;6.72;6.28;;;;;;;;;;5032121;28;20045;-78
2022/03/08 08:55:02;;;;;;;7.22;6.63;;;;;;;;;;5013340;28;20040;-76
2022/03/08 08:57:29;;;;;;;6.65;6.15;;;;;;;;;;5010955;28;20052;-76
2022/03/08 08:59:54;;;;;;;6.07;5.47;;;;;;;;;;5028698;28;20041;-77
2022/03/08 09:02:20;;;;;;;6.40;5.90;;;;;;;;;;5029482;28;20048;-77
2022/03/08 09:04:46;;;;;;;5.13;4.63;;;;;;;;;;5029806;28;20041;-76
2022/03/08 09:07:12;;;;;;;6.22;5.03;;;;;;;;;;5027116;28;20049;-76
2022/03/08 09:09:38;;;;;;;6.60;6.00;;;;;;;;;;5011749;28;20153;-76
2022/03/08 09:12:04;;;;;;;4.68;4.28;;;;;;;;;;5026283;28;20065;-75
2022/03/08 09:14:30;;;;;;;6.03;5.53;;;;;;;;;;5029299;28;20045;-76
2022/03/08 09:16:56;;;;;;;7.75;7.15;;;;;;;;;;5028772;28;20039;-76
2022/03/08 09:19:22;;;;;;;5.75;4.93;;;;;;;;;;5028620;28;20041;-76
2022/03/08 09:21:48;;;;;;;6.63;6.10;;;;;;;;;;5028908;28;20445;-76
2022/03/08 09:24:15;;;;;;;7.88;7.28;;;;;;;;;;5029077;28;20064;-77
2022/03/08 09:26:41;;;;;;;6.72;6.13;;;;;;;;;;5032677;28;20048;-76
2022/03/08 09:29:07;;;;;;;5.85;5.45;;;;;;;;;;5031548;28;20100;-76
2022/03/08 09:31:32;;;;;;;6.05;5.25;;;;;;;;;;5023813;28;20053;-77
2022/03/08 09:33:58;;;;;;;7.78;7.18;;;;;;;;;;5039988;28;20043;-78
2022/03/08 09:36:24;;;;;;;6.88;6.20;;;;;;;;;;5014597;28;20056;-75
2022/03/08 09:38:50;;;;;;;5.75;5.35;;;;;;;;;;5029306;28;20454;-76
2022/03/08 09:41:16;;;;;;;6.60;6.10;;;;;;;;;;5027162;28;20053;-78
2022/03/08 09:43:42;;;;;;;6.68;5.00;;;;;;;;;;5025850;28;20149;-78
2022/03/08 09:46:08;;;;;;;4.30;3.90;;;;;;;;;;5030045;28;20577;-77
2022/03/08 09:48:34;;;;;;;5.85;5.35;;;;;;;;;;5007335;28;20046;-77
2022/03/08 09:51:00;;;;;;;6.25;5.75;;;;;;;;;;5016725;28;20068;-77
2022/03/08 09:53:28;;;;;;;6.20;5.68;;;;;;;;;;5026888;28;20060;-77
2022/03/08 09:55:56;;;;;;;6.07;5.60;;;;;;;;;;5028418;28;20041;-77
2022/03/08 09:58:22;;;;;;;6.10;5.57;;;;;;;;;;5029460;28;20045;-77
2022/03/08 10:00:48;;;;;;;8.82;6.78;;;;;;;;;;5027364;28;20044;-80
2022/03/08 10:03:15;;;;;;;7.70;7.10;;;;;;;;;;5026967;28;20427;-80
2022/03/08 10:05:41;;;;;;;6.63;6.13;;;;;;;;;;5027055;28;20598;-78
2022/03/08 10:08:14;;;;;;;6.53;6.03;;;;;;;;;;5026126;28;20037;-78
2022/03/08 10:10:47;;;;;;;6.40;5.80;;;;;;;;;;4999874;28;20038;-79
2022/03/08 10:13:13;;;;;;;5.25;4.85;;;;;;;;;;5028555;28;20042;-79
2022/03/08 10:15:39;;;;;;;6.25;5.65;;;;;;;;;;5034173;28;20107;-80
2022/03/08 10:18:05;;;;;;;6.10;5.43;;;;;;;;;;5009662;28;20052;-78
2022/03/08 10:20:31;;;;;;;5.95;5.35;;;;;;;;;;5030250;28;20037;-79
2022/03/08 10:22:58;;;;;;;4.97;4.47;;;;;;;;;;5012854;28;20144;-80
2022/03/08 10:25:25;;;;;;;5.97;5.47;;;;;;;;;;5028645;28;20041;-78
2022/03/08 10:27:54;;;;;;;6.32;5.82;;;;;;;;;;5028742;28;20060;-78
2022/03/08 10:30:20;;;;;;;6.00;5.50;;;;;;;;;;5030751;28;20088;-80
2022/03/08 10:32:46;;;;;;;7.30;6.70;;;;;;;;;;5020701;28;20041;-79
2022/03/08 10:35:12;;;;;;;6.57;5.97;;;;;;;;;;5011708;28;20042;-79
2022/03/08 10:37:38;;;;;;;8.85;8.15;;;;;;;;;;4976601;28;20030;-80
2022/03/08 10:40:08;;;;;;;17.38;13.40;;;;;;;;;;5009925;28;20041;-78
2022/03/08 10:42:38;;;;;;;11.30;10.20;;;;;;;;;;5005790;28;20161;-78
2022/03/08 10:45:11;;;;;;;13.80;9.13;;;;;;;;;;4997656;28;20747;-76
2022/03/08 10:47:40;;;;;;;6.80;6.20;;;;;;;;;;5006301;28;20085;-78
2022/03/08 10:50:06;;;;;;;8.48;7.63;;;;;;;;;;5010643;28;20060;-76
2022/03/08 10:52:33;;;;;;;9.52;8.63;;;;;;;;;;4995183;28;20165;-76
2022/03/08 10:55:11;;;;;;;8.55;7.85;;;;;;;;;;5011920;28;20497;-77
2022/03/08 10:57:38;;;;;;;5.93;5.03;;;;;;;;;;5016356;28;20099;-76
2022/03/08 11:00:09;;;;;;;6.70;6.20;;;;;;;;;;5014373;28;20068;-75
2022/03/08 11:02:35;;;;;;;6.47;5.97;;;;;;;;;;5012028;28;20045;-77
2022/03/08 11:05:05;;;;;;;8.07;7.38;;;;;;;;;;5009410;28;20514;-77
2022/03/08 11:07:32;;;;;;;6.97;6.47;;;;;;;;;;4999169;28;20110;-76
2022/03/08 11:10:08;;;;;;;10.23;9.43;;;;;;;;;;5013484;28;20104;-76
2022/03/08 11:12:54;;;;;;;6.65;6.20;;;;;;;;;;4978919;28;20064;-76
2022/03/08 11:15:39;;;;;;;7.45;6.85;;;;;;;;;;5002793;28;20054;-75
2022/03/08 11:18:06;;;;;;;8.13;7.53;;;;;;;;;;5005120;28;20140;-76
2022/03/08 11:20:32;;;;;;;7.00;6.40;;;;;;;;;;4988986;28;20038;-76
2022/03/08 11:22:58;;;;;;;6.95;6.43;;;;;;;;;;4989354;28;20502;-75
2022/03/08 11:25:25;;;;;;;5.90;5.40;;;;;;;;;;5007611;28;20605;-74
2022/03/08 11:27:51;;;;;;;8.20;7.40;;;;;;;;;;4981741;28;20057;-75
2022/03/08 11:30:18;;;;;;;6.47;5.90;;;;;;;;;;5017274;28;20072;-75
2022/03/08 11:32:56;;;;;;;6.20;5.70;;;;;;;;;;5035085;28;20072;-75
2022/03/08 11:35:41;;;;;;;6.63;6.03;;;;;;;;;;5035434;28;20058;-75
2022/03/08 11:38:07;;;;;;;6.97;6.30;;;;;;;;;;5036342;28;20041;-75
2022/03/08 11:40:33;;;;;;;6.47;5.88;;;;;;;;;;5033753;28;20048;-75
2022/03/08 11:43:04;;;;;;;5.32;3.90;;;;;;;;;;5028465;28;20048;-74
2022/03/08 11:45:30;;;;;;;7.20;6.13;;;;;;;;;;5025058;28;20033;-73
2022/03/08 11:48:03;;;;;;;5.10;4.70;;;;;;;;;;5027547;28;20080;-73
2022/03/08 11:50:31;;;;;;;6.03;5.43;;;;;;;;;;5025580;28;20599;-73
2022/03/08 11:53:12;;;;;;;4.63;4.22;;;;;;;;;;5028648;28;20030;-74
2022/03/08 11:55:44;;;;;;;5.05;4.65;;;;;;;;;;5028047;28;20063;-74
2022/03/08 11:58:13;;;;;;;6.10;5.70;;;;;;;;;;5031409;28;20061;-73
2022/03/08 12:00:52;;;;;;;5.07;4.57;;;;;;;;;;5030202;28;20033;-74
2022/03/08 12:03:24;;;;;;;5.72;5.20;;;;;;;;;;4995170;28;20041;-73
2022/03/08 12:05:50;;;;;;;5.68;5.18;;;;;;;;;;5029346;28;20045;-75
2022/03/08 12:08:26;;;;;;;6.13;5.63;;;;;;;;;;4996157;28;20509;-74
2022/03/08 12:11:00;;;;;;;5.32;4.85;;;;;;;;;;5028419;28;20146;-73
2022/03/08 12:13:33;;;;;;;5.25;4.60;;;;;;;;;;5029868;28;20121;-74
2022/03/08 12:16:05;;;;;;;5.28;4.78;;;;;;;;;;4995717;28;20044;-74
2022/03/08 12:18:40;;;;;;;4.70;4.30;;;;;;;;;;5028567;28;20140;-73
2022/03/08 12:21:09;;;;;;;5.40;4.95;;;;;;;;;;5045114;28;20049;-74
2022/03/08 12:23:54;;;;;;;5.15;4.68;;;;;;;;;;5027568;28;20053;-72
2022/03/08 12:26:27;;;;;;;4.85;4.53;;;;;;;;;;5027648;28;20513;-73
2022/03/08 12:29:06;;;;;;;5.88;5.00;;;;;;;;;;5031021;28;20048;-74
2022/03/08 12:31:33;;;;;;;5.25;4.75;;;;;;;;;;5021740;28;20057;-74
2022/03/08 12:34:06;;;;;;;7.00;6.30;;;;;;;;;;5033207;28;20124;-73
2022/03/08 12:36:33;;;;;;;7.00;6.30;;;;;;;;;;5031757;28;20528;-73
2022/03/08 12:38:59;;;;;;;6.75;6.15;;;;;;;;;;5014438;28;20048;-74
2022/03/08 12:41:25;;;;;;;6.72;6.10;;;;;;;;;;5030573;28;20045;-74
2022/03/08 12:44:00;;;;;;;6.60;6.10;;;;;;;;;;5016026;28;20041;-74
2022/03/08 12:46:27;;;;;;;10.27;9.27;;;;;;;;;;5048548;28;20535;-73
2022/03/08 12:48:53;;;;;;;6.85;6.25;;;;;;;;;;5052104;28;20040;-74
2022/03/08 12:51:20;;;;;;;7.93;7.22;;;;;;;;;;5050971;28;20052;-76
2022/03/08 12:53:47;;;;;;;10.23;9.32;;;;;;;;;;5052961;28;20040;-74
2022/03/08 12:56:13;;;;;;;10.27;9.32;;;;;;;;;;5051593;28;20049;-74
2022/03/08 12:58:42;;;;;;;10.63;8.85;;;;;;;;;;5033141;28;20037;-74
2022/03/08 13:01:14;;;;;;;9.57;8.23;;;;;;;;;;5050711;28;20060;-74
2022/03/08 13:03:44;;;;;;;8.73;8.00;;;;;;;;;;5033028;28;20125;-74
2022/03/08 13:06:10;;;;;;;6.82;5.85;;;;;;;;;;5049077;28;20037;-74
2022/03/08 13:08:37;;;;;;;10.05;7.65;;;;;;;;;;5043831;28;20510;-73
2022/03/08 13:11:04;;;;;;;6.65;6.00;;;;;;;;;;5012468;28;20045;-74
2022/03/08 13:13:30;;;;;;;7.13;6.53;;;;;;;;;;5013636;28;20428;-74
2022/03/08 13:15:56;;;;;;;4.95;4.55;;;;;;;;;;5030196;28;20037;-73
2022/03/08 13:18:23;;;;;;;6.53;5.93;;;;;;;;;;5030025;28;20060;-74
2022/03/08 13:20:49;;;;;;;4.82;4.43;;;;;;;;;;5013517;28;20362;-73
2022/03/08 13:23:22;;;;;;;8.02;7.32;;;;;;;;;;5030243;28;20136;-74
2022/03/08 13:25:52;;;;;;;6.60;6.10;;;;;;;;;;4997131;28;20044;-73
2022/03/08 13:28:19;;;;;;;8.50;4.95;;;;;;;;;;5013819;28;20136;-74
2022/03/08 13:30:47;;;;;;;6.40;5.90;;;;;;;;;;5031048;28;20517;-73
2022/03/08 13:33:20;;;;;;;6.00;5.38;;;;;;;;;;5032076;28;20105;-74
2022/03/08 13:35:56;;;;;;;6.60;6.10;;;;;;;;;;5031429;28;20068;-74
2022/03/08 13:38:25;;;;;;;5.45;4.95;;;;;;;;;;5030958;28;20168;-74
2022/03/08 13:40:53;;;;;;;7.78;7.07;;;;;;;;;;5029626;28;20100;-73
2022/03/08 13:43:19;;;;;;;6.95;6.32;;;;;;;;;;5029603;28;20041;-73
2022/03/08 13:45:45;;;;;;;6.97;6.35;;;;;;;;;;5030763;28;20060;-74
2022/03/08 13:48:12;;;;;;;7.45;6.75;;;;;;;;;;5013433;28;20041;-74
2022/03/08 13:50:38;;;;;;;8.55;7.75;;;;;;;;;;5012800;28;20349;-74
2022/03/08 13:53:05;;;;;;;7.28;6.65;;;;;;;;;;5030840;28;20045;-74
2022/03/08 13:55:31;;;;;;;7.82;6.05;;;;;;;;;;5032406;28;20083;-74
2022/03/08 13:57:57;;;;;;;5.32;4.93;;;;;;;;;;5015165;28;20481;-74
2022/03/08 14:00:35;;;;;;;7.70;6.63;;;;;;;;;;5031620;28;20042;-73
2022/03/08 14:03:01;;;;;;;7.88;7.18;;;;;;;;;;5014218;28;20084;-73
2022/03/08 14:05:27;;;;;;;6.97;6.32;;;;;;;;;;5012790;28;20065;-74
2022/03/08 14:08:00;;;;;;;7.45;6.78;;;;;;;;;;4997059;28;20057;-73
2022/03/08 14:10:26;;;;;;;9.25;7.30;;;;;;;;;;4977875;28;20045;-74
2022/03/08 14:12:52;;;;;;;7.07;5.85;;;;;;;;;;5025892;28;20050;-73
2022/03/08 14:15:19;;;;;;;6.80;6.20;;;;;;;;;;5010302;28;20129;-73
2022/03/08 14:17:46;;;;;;;6.78;6.28;;;;;;;;;;5010244;28;20050;-73
2022/03/08 14:20:19;;;;;;;7.22;5.97;;;;;;;;;;5010588;28;20137;-74
2022/03/08 14:23:00;;;;;;;6.15;5.53;;;;;;;;;;4992827;28;20426;-73
2022/03/08 14:25:27;;;;;;;6.20;5.60;;;;;;;;;;4992651;28;20038;-74
2022/03/08 14:27:52;;;;;;;5.65;5.05;;;;;;;;;;5009260;28;20124;-73
2022/03/08 14:30:23;;;;;;;8.65;7.47;;;;;;;;;;5008958;28;20517;-74
2022/03/08 14:32:49;;;;;;;7.82;5.65;;;;;;;;;;4992663;28;20058;-73
2022/03/08 14:35:23;;;;;;;6.47;5.88;;;;;;;;;;5009228;28;20502;-73